sensor_id;sensor_type;location;lat;lon;timestamp;pressure;altitude;pressure_sealevel;temperature;humidity
59825;BME280;45703;50.898;6.054;2022-12-18T00:01:47;101371.56;;;-9.89;100.00
59825;BME280;45703;50.898;6.054;2022-12-18T00:04:24;101384.53;;;-9.90;100.00
59825;BME280;45703;50.898;6.054;2022-12-18T00:06:50;101394.03;;;-9.91;100.00
59825;BME280;45703;50.898;6.054;2022-12-18T00:09:15;101393.06;;;-9.88;100.00
59825;BME280;45703;50.898;6.054;2022-12-18T00:11:41;101393.06;;;-9.88;100.00
59825;BME280;45703;50.898;6.054;2022-12-18T00:14:06;101388.59;;;-9.85;100.00
59825;BME280;45703;50.898;6.054;2022-12-18T00:16:32;101381.75;;;-9.86;100.00
59825;BME280;45703;50.898;6.054;2022-12-18T00:19:00;101388.34;;;-9.79;100.00
59825;BME280;45703;50.898;6.054;2022-12-18T00:21:27;101381.28;;;-9.76;100.00
59825;BME280;45703;50.898;6.054;2022-12-18T00:23:53;101388.97;;;-9.74;100.00
59825;BME280;45703;50.898;6.054;2022-12-18T00:26:27;101405.88;;;-9.67;100.00
59825;BME280;45703;50.898;6.054;2022-12-18T00:28:53;101390.19;;;-9.63;100.00
59825;BME280;45703;50.898;6.054;2022-12-18T00:31:22;101382.22;;;-9.58;100.00
59825;BME280;45703;50.898;6.054;2022-12-18T00:33:48;101373.56;;;-9.57;100.00
59825;BME280;45703;50.898;6.054;2022-12-18T00:36:16;101381.19;;;-9.54;100.00
59825;BME280;45703;50.898;6.054;2022-12-18T00:38:43;101383.63;;;-9.51;100.00
59825;BME280;45703;50.898;6.054;2022-12-18T00:41:10;101376.03;;;-9.54;100.00
59825;BME280;45703;50.898;6.054;2022-12-18T00:43:36;101367.13;;;-9.67;100.00
59825;BME280;45703;50.898;6.054;2022-12-18T00:46:02;101390.53;;;-9.70;100.00
59825;BME280;45703;50.898;6.054;2022-12-18T00:48:28;101389.03;;;-9.76;100.00
59825;BME280;45703;50.898;6.054;2022-12-18T00:50:53;101372.34;;;-9.87;100.00
59825;BME280;45703;50.898;6.054;2022-12-18T00:53:18;101368.13;;;-9.89;100.00
59825;BME280;45703;50.898;6.054;2022-12-18T00:55:45;101362.19;;;-9.91;100.00
59825;BME280;45703;50.898;6.054;2022-12-18T00:58:15;101359.56;;;-9.90;100.00
59825;BME280;45703;50.898;6.054;2022-12-18T01:00:41;101373.13;;;-9.85;100.00
59825;BME280;45703;50.898;6.054;2022-12-18T01:03:07;101367.88;;;-9.83;100.00
59825;BME280;45703;50.898;6.054;2022-12-18T01:05:32;101377.38;;;-9.84;100.00
59825;BME280;45703;50.898;6.054;2022-12-18T01:07:58;101368.13;;;-9.89;100.00
59825;BME280;45703;50.898;6.054;2022-12-18T01:10:24;101372.97;;;-9.82;100.00
59825;BME280;45703;50.898;6.054;2022-12-18T01:12:50;101371.31;;;-9.83;100.00
59825;BME280;45703;50.898;6.054;2022-12-18T01:15:16;101371.09;;;-9.79;100.00
59825;BME280;45703;50.898;6.054;2022-12-18T01:17:42;101367.41;;;-9.73;100.00
59825;BME280;45703;50.898;6.054;2022-12-18T01:20:08;101350.91;;;-9.71;100.00
59825;BME280;45703;50.898;6.054;2022-12-18T01:22:34;101342.16;;;-9.67;100.00
59825;BME280;45703;50.898;6.054;2022-12-18T01:25:00;101355.56;;;-9.59;100.00
59825;BME280;45703;50.898;6.054;2022-12-18T01:27:26;101347.72;;;-9.57;100.00
59825;BME280;45703;50.898;6.054;2022-12-18T01:29:51;101362.00;;;-9.49;100.00
59825;BME280;45703;50.898;6.054;2022-12-18T01:32:17;101354.81;;;-9.42;100.00
59825;BME280;45703;50.898;6.054;2022-12-18T01:34:42;101350.41;;;-9.40;100.00
59825;BME280;45703;50.898;6.054;2022-12-18T01:37:08;101351.53;;;-9.46;100.00
59825;BME280;45703;50.898;6.054;2022-12-18T01:39:33;101364.34;;;-9.44;100.00
59825;BME280;45703;50.898;6.054;2022-12-18T01:42:00;101366.19;;;-9.46;100.00
59825;BME280;45703;50.898;6.054;2022-12-18T01:44:57;101369.94;;;-9.53;100.00
59825;BME280;45703;50.898;6.054;2022-12-18T01:47:25;101368.53;;;-9.60;100.00
59825;BME280;45703;50.898;6.054;2022-12-18T01:49:52;101368.00;;;-9.67;100.00
59825;BME280;45703;50.898;6.054;2022-12-18T01:52:19;101375.06;;;-9.72;100.00
59825;BME280;45703;50.898;6.054;2022-12-18T01:54:46;101355.41;;;-9.74;100.00
59825;BME280;45703;50.898;6.054;2022-12-18T01:57:13;101368.38;;;-9.76;100.00
59825;BME280;45703;50.898;6.054;2022-12-18T01:59:39;101359.28;;;-9.84;100.00
59825;BME280;45703;50.898;6.054;2022-12-18T02:02:06;101353.50;;;-9.89;100.00
59825;BME280;45703;50.898;6.054;2022-12-18T02:04:32;101353.81;;;-9.96;100.00
59825;BME280;45703;50.898;6.054;2022-12-18T02:07:31;101364.19;;;-9.98;100.00
59825;BME280;45703;50.898;6.054;2022-12-18T02:12:47;101350.81;;;-10.06;100.00
59825;BME280;45703;50.898;6.054;2022-12-18T02:18:12;101354.44;;;-10.10;100.00
59825;BME280;45703;50.898;6.054;2022-12-18T02:20:43;101355.47;;;-10.14;100.00
59825;BME280;45703;50.898;6.054;2022-12-18T02:28:43;101346.81;;;-10.33;100.00
59825;BME280;45703;50.898;6.054;2022-12-18T02:31:14;101344.63;;;-10.42;100.00
59825;BME280;45703;50.898;6.054;2022-12-18T02:33:43;101351.47;;;-10.41;100.00
59825;BME280;45703;50.898;6.054;2022-12-18T02:36:11;101359.06;;;-10.38;100.00
59825;BME280;45703;50.898;6.054;2022-12-18T02:38:38;101353.97;;;-10.39;100.00
59825;BME280;45703;50.898;6.054;2022-12-18T02:41:05;101353.41;;;-10.46;100.00
59825;BME280;45703;50.898;6.054;2022-12-18T02:43:31;101347.97;;;-10.40;100.00
59825;BME280;45703;50.898;6.054;2022-12-18T02:45:59;101343.06;;;-10.46;100.00
59825;BME280;45703;50.898;6.054;2022-12-18T02:48:32;101336.53;;;-10.54;100.00
59825;BME280;45703;50.898;6.054;2022-12-18T02:51:14;101330.66;;;-10.58;100.00
59825;BME280;45703;50.898;6.054;2022-12-18T02:53:49;101342.91;;;-10.63;100.00
59825;BME280;45703;50.898;6.054;2022-12-18T02:56:28;101333.59;;;-10.67;100.00
59825;BME280;45703;50.898;6.054;2022-12-18T02:59:09;101331.16;;;-10.70;100.00
59825;BME280;45703;50.898;6.054;2022-12-18T03:01:50;101328.56;;;-10.70;100.00
59825;BME280;45703;50.898;6.054;2022-12-18T03:04:25;101323.41;;;-10.70;100.00
59825;BME280;45703;50.898;6.054;2022-12-18T03:06:56;101325.41;;;-10.76;100.00
59825;BME280;45703;50.898;6.054;2022-12-18T03:09:31;101323.66;;;-10.76;100.00
59825;BME280;45703;50.898;6.054;2022-12-18T03:12:10;101311.81;;;-10.80;100.00
59825;BME280;45703;50.898;6.054;2022-12-18T03:15:17;101309.22;;;-10.80;100.00
59825;BME280;45703;50.898;6.054;2022-12-18T03:17:46;101303.16;;;-10.79;100.00
59825;BME280;45703;50.898;6.054;2022-12-18T03:20:17;101310.13;;;-10.81;100.00
59825;BME280;45703;50.898;6.054;2022-12-18T03:22:46;101315.34;;;-10.82;100.00
59825;BME280;45703;50.898;6.054;2022-12-18T03:25:14;101308.44;;;-10.82;100.00
59825;BME280;45703;50.898;6.054;2022-12-18T03:27:46;101295.81;;;-10.88;100.00
59825;BME280;45703;50.898;6.054;2022-12-18T03:30:12;101308.56;;;-10.85;100.00
59825;BME280;45703;50.898;6.054;2022-12-18T03:32:49;101291.69;;;-10.92;100.00
59825;BME280;45703;50.898;6.054;2022-12-18T03:35:22;101290.91;;;-10.94;100.00
59825;BME280;45703;50.898;6.054;2022-12-18T03:37:49;101292.25;;;-10.85;100.00
59825;BME280;45703;50.898;6.054;2022-12-18T03:40:14;101295.81;;;-10.88;100.00
59825;BME280;45703;50.898;6.054;2022-12-18T03:42:53;101284.06;;;-10.95;100.00
59825;BME280;45703;50.898;6.054;2022-12-18T03:48:05;101291.56;;;-10.89;100.00
59825;BME280;45703;50.898;6.054;2022-12-18T03:53:22;101292.06;;;-10.81;100.00
59825;BME280;45703;50.898;6.054;2022-12-18T03:55:50;101293.63;;;-10.77;100.00
59825;BME280;45703;50.898;6.054;2022-12-18T03:58:20;101277.63;;;-10.85;100.00
59825;BME280;45703;50.898;6.054;2022-12-18T04:00:50;101284.47;;;-10.84;100.00
59825;BME280;45703;50.898;6.054;2022-12-18T04:03:19;101279.56;;;-10.90;100.00
59825;BME280;45703;50.898;6.054;2022-12-18T04:05:48;101272.47;;;-10.85;100.00
59825;BME280;45703;50.898;6.054;2022-12-18T04:08:15;101275.22;;;-10.89;100.00
59825;BME280;45703;50.898;6.054;2022-12-18T04:10:41;101279.44;;;-10.87;100.00
59825;BME280;45703;50.898;6.054;2022-12-18T04:13:06;101277.63;;;-10.85;100.00
59825;BME280;45703;50.898;6.054;2022-12-18T04:15:36;101269.38;;;-10.73;100.00
59825;BME280;45703;50.898;6.054;2022-12-18T04:18:03;101258.34;;;-10.76;100.00
59825;BME280;45703;50.898;6.054;2022-12-18T04:20:28;101264.75;;;-10.65;100.00
59825;BME280;45703;50.898;6.054;2022-12-18T04:22:54;101259.72;;;-10.68;100.00
59825;BME280;45703;50.898;6.054;2022-12-18T04:25:19;101269.66;;;-10.59;100.00
59825;BME280;45703;50.898;6.054;2022-12-18T04:27:44;101269.53;;;-10.56;100.00
59825;BME280;45703;50.898;6.054;2022-12-18T04:30:10;101279.56;;;-10.50;100.00
59825;BME280;45703;50.898;6.054;2022-12-18T04:32:35;101265.00;;;-10.51;100.00
59825;BME280;45703;50.898;6.054;2022-12-18T04:35:01;101253.66;;;-10.47;100.00
59825;BME280;45703;50.898;6.054;2022-12-18T04:37:27;101256.91;;;-10.42;100.00
59825;BME280;45703;50.898;6.054;2022-12-18T04:39:52;101245.28;;;-10.32;100.00
59825;BME280;45703;50.898;6.054;2022-12-18T04:42:17;101246.50;;;-10.20;100.00
59825;BME280;45703;50.898;6.054;2022-12-18T04:44:43;101243.63;;;-10.14;100.00
59825;BME280;45703;50.898;6.054;2022-12-18T04:47:08;101247.44;;;-10.23;100.00
59825;BME280;45703;50.898;6.054;2022-12-18T04:49:33;101249.13;;;-10.22;100.00
59825;BME280;45703;50.898;6.054;2022-12-18T04:51:59;101255.31;;;-10.26;100.00
59825;BME280;45703;50.898;6.054;2022-12-18T04:54:24;101268.22;;;-10.26;100.00
59825;BME280;45703;50.898;6.054;2022-12-18T04:56:50;101269.41;;;-10.33;100.00
59825;BME280;45703;50.898;6.054;2022-12-18T04:59:15;101272.75;;;-10.31;100.00
59825;BME280;45703;50.898;6.054;2022-12-18T05:01:41;101263.28;;;-10.12;100.00
59825;BME280;45703;50.898;6.054;2022-12-18T05:04:06;101281.09;;;-10.06;100.00
59825;BME280;45703;50.898;6.054;2022-12-18T05:06:31;101278.00;;;-10.14;100.00
59825;BME280;45703;50.898;6.054;2022-12-18T05:08:57;101273.91;;;-10.18;100.00
59825;BME280;45703;50.898;6.054;2022-12-18T05:11:23;101275.75;;;-10.21;100.00
59825;BME280;45703;50.898;6.054;2022-12-18T05:13:48;101288.56;;;-10.18;100.00
59825;BME280;45703;50.898;6.054;2022-12-18T05:16:14;101292.09;;;-10.21;100.00
59825;BME280;45703;50.898;6.054;2022-12-18T05:18:40;101303.28;;;-10.20;100.00
59825;BME280;45703;50.898;6.054;2022-12-18T05:21:05;101299.06;;;-10.23;100.00
59825;BME280;45703;50.898;6.054;2022-12-18T05:23:31;101301.66;;;-10.23;100.00
59825;BME280;45703;50.898;6.054;2022-12-18T05:25:58;101304.22;;;-10.23;100.00
59825;BME280;45703;50.898;6.054;2022-12-18T05:28:25;101299.06;;;-10.23;100.00
59825;BME280;45703;50.898;6.054;2022-12-18T05:30:53;101285.56;;;-10.29;100.00
59825;BME280;45703;50.898;6.054;2022-12-18T05:33:19;101303.38;;;-10.23;100.00
59825;BME280;45703;50.898;6.054;2022-12-18T05:35:50;101292.22;;;-10.24;100.00
59825;BME280;45703;50.898;6.054;2022-12-18T05:38:16;101288.59;;;-10.20;100.00
59825;BME280;45703;50.898;6.054;2022-12-18T05:40:42;101278.91;;;-10.15;100.00
59825;BME280;45703;50.898;6.054;2022-12-18T05:43:09;101273.31;;;-10.04;100.00
59825;BME280;45703;50.898;6.054;2022-12-18T05:45:37;101280.75;;;-9.98;100.00
59825;BME280;45703;50.898;6.054;2022-12-18T05:48:03;101282.34;;;-9.96;100.00
59825;BME280;45703;50.898;6.054;2022-12-18T05:50:28;101280.06;;;-10.02;100.00
59825;BME280;45703;50.898;6.054;2022-12-18T05:52:54;101279.50;;;-10.08;100.00
59825;BME280;45703;50.898;6.054;2022-12-18T05:55:19;101281.09;;;-10.06;100.00
59825;BME280;45703;50.898;6.054;2022-12-18T05:57:44;101289.19;;;-10.13;100.00
59825;BME280;45703;50.898;6.054;2022-12-18T06:00:10;101288.47;;;-10.17;100.00
59825;BME280;45703;50.898;6.054;2022-12-18T06:02:36;101287.84;;;-10.22;100.00
59825;BME280;45703;50.898;6.054;2022-12-18T06:05:01;101287.34;;;-10.30;100.00
59825;BME280;45703;50.898;6.054;2022-12-18T06:07:27;101279.91;;;-10.37;100.00
59825;BME280;45703;50.898;6.054;2022-12-18T06:09:52;101296.28;;;-10.38;100.00
59825;BME280;45703;50.898;6.054;2022-12-18T06:12:17;101284.59;;;-10.47;100.00
59825;BME280;45703;50.898;6.054;2022-12-18T06:14:43;101274.28;;;-10.47;100.00
59825;BME280;45703;50.898;6.054;2022-12-18T06:17:08;101269.72;;;-10.40;100.00
59825;BME280;45703;50.898;6.054;2022-12-18T06:19:34;101274.06;;;-10.41;100.00
59825;BME280;45703;50.898;6.054;2022-12-18T06:21:59;101277.28;;;-10.36;100.00
59825;BME280;45703;50.898;6.054;2022-12-18T06:24:24;101278.69;;;-10.29;100.00
59825;BME280;45703;50.898;6.054;2022-12-18T06:26:50;101277.69;;;-10.26;100.00
59825;BME280;45703;50.898;6.054;2022-12-18T06:29:15;101256.16;;;-10.25;100.00
59825;BME280;45703;50.898;6.054;2022-12-18T06:31:40;101279.69;;;-10.13;100.00
59825;BME280;45703;50.898;6.054;2022-12-18T06:34:06;101270.53;;;-10.20;100.00
59825;BME280;45703;50.898;6.054;2022-12-18T06:36:31;101276.34;;;-10.15;100.00
59825;BME280;45703;50.898;6.054;2022-12-18T06:38:58;101275.31;;;-10.11;100.00
59825;BME280;45703;50.898;6.054;2022-12-18T06:41:23;101290.03;;;-10.13;100.00
59825;BME280;45703;50.898;6.054;2022-12-18T06:43:48;101283.25;;;-10.15;100.00
59825;BME280;45703;50.898;6.054;2022-12-18T06:46:14;101284.09;;;-10.15;100.00
59825;BME280;45703;50.898;6.054;2022-12-18T06:48:40;101268.38;;;-10.29;100.00
59825;BME280;45703;50.898;6.054;2022-12-18T06:51:06;101297.13;;;-10.18;100.00
59825;BME280;45703;50.898;6.054;2022-12-18T06:53:32;101291.97;;;-10.18;100.00
59825;BME280;45703;50.898;6.054;2022-12-18T06:56:05;101293.78;;;-10.20;100.00
59825;BME280;45703;50.898;6.054;2022-12-18T06:58:31;101297.25;;;-10.21;100.00
59825;BME280;45703;50.898;6.054;2022-12-18T07:01:01;101294.16;;;-10.29;100.00
59825;BME280;45703;50.898;6.054;2022-12-18T07:03:27;101288.50;;;-10.37;100.00
59825;BME280;45703;50.898;6.054;2022-12-18T07:05:52;101272.38;;;-10.42;100.00
59825;BME280;45703;50.898;6.054;2022-12-18T07:08:17;101275.47;;;-10.34;100.00
59825;BME280;45703;50.898;6.054;2022-12-18T07:10:43;101279.84;;;-10.36;100.00
59825;BME280;45703;50.898;6.054;2022-12-18T07:13:09;101260.50;;;-10.46;100.00
59825;BME280;45703;50.898;6.054;2022-12-18T07:15:35;101273.28;;;-10.43;100.00
59825;BME280;45703;50.898;6.054;2022-12-18T07:18:00;101265.78;;;-10.49;100.00
59825;BME280;45703;50.898;6.054;2022-12-18T07:20:26;101270.84;;;-10.46;100.00
59825;BME280;45703;50.898;6.054;2022-12-18T07:22:51;101273.19;;;-10.41;100.00
59825;BME280;45703;50.898;6.054;2022-12-18T07:25:16;101275.47;;;-10.34;100.00
59825;BME280;45703;50.898;6.054;2022-12-18T07:27:42;101280.50;;;-10.31;100.00
59825;BME280;45703;50.898;6.054;2022-12-18T07:30:08;101277.84;;;-10.29;100.00
59825;BME280;45703;50.898;6.054;2022-12-18T07:32:33;101272.66;;;-10.29;100.00
59825;BME280;45703;50.898;6.054;2022-12-18T07:34:59;101253.44;;;-10.22;100.00
59825;BME280;45703;50.898;6.054;2022-12-18T07:37:24;101245.50;;;-10.18;100.00
59825;BME280;45703;50.898;6.054;2022-12-18T07:39:50;101222.56;;;-10.05;100.00
59825;BME280;45703;50.898;6.054;2022-12-18T07:42:15;101222.47;;;-10.04;100.00
59825;BME280;45703;50.898;6.054;2022-12-18T07:44:56;101218.63;;;-9.95;100.00
59825;BME280;45703;50.898;6.054;2022-12-18T07:47:21;101226.03;;;-9.88;100.00
59825;BME280;45703;50.898;6.054;2022-12-18T07:49:47;101216.06;;;-9.77;100.00
59825;BME280;45703;50.898;6.054;2022-12-18T07:52:12;101214.56;;;-9.64;100.00
59825;BME280;45703;50.898;6.054;2022-12-18T07:54:38;101206.94;;;-9.49;100.00
59825;BME280;45703;50.898;6.054;2022-12-18T07:57:03;101191.28;;;-9.46;100.00
59825;BME280;45703;50.898;6.054;2022-12-18T07:59:29;101201.03;;;-9.34;100.00
59825;BME280;45703;50.898;6.054;2022-12-18T08:01:54;101192.22;;;-9.30;100.00
59825;BME280;45703;50.898;6.054;2022-12-18T08:04:19;101186.59;;;-9.21;100.00
59825;BME280;45703;50.898;6.054;2022-12-18T08:06:45;101197.50;;;-9.14;100.00
59825;BME280;45703;50.898;6.054;2022-12-18T08:09:11;101183.50;;;-9.10;100.00
59825;BME280;45703;50.898;6.054;2022-12-18T08:11:36;101174.84;;;-9.09;100.00
59825;BME280;45703;50.898;6.054;2022-12-18T08:14:02;101175.91;;;-8.96;100.00
59825;BME280;45703;50.898;6.054;2022-12-18T08:16:27;101183.44;;;-8.92;100.00
59825;BME280;45703;50.898;6.054;2022-12-18T08:18:53;101176.28;;;-8.87;100.00
59825;BME280;45703;50.898;6.054;2022-12-18T08:21:21;101173.00;;;-8.73;100.00
59825;BME280;45703;50.898;6.054;2022-12-18T08:23:48;101163.19;;;-8.67;100.00
59825;BME280;45703;50.898;6.054;2022-12-18T08:26:14;101174.50;;;-8.52;100.00
59825;BME280;45703;50.898;6.054;2022-12-18T08:28:40;101173.09;;;-8.43;100.00
59825;BME280;45703;50.898;6.054;2022-12-18T08:31:07;101184.84;;;-8.36;100.00
59825;BME280;45703;50.898;6.054;2022-12-18T08:33:33;101178.16;;;-8.24;100.00
59825;BME280;45703;50.898;6.054;2022-12-18T08:36:00;101152.59;;;-8.15;100.00
59825;BME280;45703;50.898;6.054;2022-12-18T08:38:25;101168.63;;;-7.93;100.00
59825;BME280;45703;50.898;6.054;2022-12-18T08:41:00;101182.13;;;-7.71;100.00
59825;BME280;45703;50.898;6.054;2022-12-18T08:43:26;101176.09;;;-7.56;100.00
59825;BME280;45703;50.898;6.054;2022-12-18T08:46:10;101181.25;;;-7.40;100.00
59825;BME280;45703;50.898;6.054;2022-12-18T08:48:35;101188.34;;;-7.28;100.00
59825;BME280;45703;50.898;6.054;2022-12-18T08:51:01;101201.88;;;-7.08;100.00
59825;BME280;45703;50.898;6.054;2022-12-18T08:53:26;101184.28;;;-7.03;100.00
59825;BME280;45703;50.898;6.054;2022-12-18T08:55:52;101181.72;;;-6.89;100.00
59825;BME280;45703;50.898;6.054;2022-12-18T08:58:18;101180.19;;;-6.78;100.00
59825;BME280;45703;50.898;6.054;2022-12-18T09:00:43;101162.69;;;-6.74;100.00
59825;BME280;45703;50.898;6.054;2022-12-18T09:03:13;101178.09;;;-6.57;100.00
59825;BME280;45703;50.898;6.054;2022-12-18T09:05:39;101170.50;;;-6.46;100.00
59825;BME280;45703;50.898;6.054;2022-12-18T09:08:05;101152.34;;;-6.32;100.00
59825;BME280;45703;50.898;6.054;2022-12-18T09:10:31;101154.72;;;-6.15;100.00
59825;BME280;45703;50.898;6.054;2022-12-18T09:12:56;101150.25;;;-5.99;100.00
59825;BME280;45703;50.898;6.054;2022-12-18T09:15:22;101155.16;;;-5.81;100.00
59825;BME280;45703;50.898;6.054;2022-12-18T09:17:47;101142.63;;;-5.62;100.00
59825;BME280;45703;50.898;6.054;2022-12-18T09:20:13;101143.41;;;-5.48;100.00
59825;BME280;45703;50.898;6.054;2022-12-18T09:22:38;101140.78;;;-5.34;100.00
59825;BME280;45703;50.898;6.054;2022-12-18T09:25:04;101147.47;;;-5.17;100.00
59825;BME280;45703;50.898;6.054;2022-12-18T09:27:32;101139.69;;;-5.05;100.00
59825;BME280;45703;50.898;6.054;2022-12-18T09:29:58;101136.47;;;-4.96;100.00
59825;BME280;45703;50.898;6.054;2022-12-18T09:32:23;101129.41;;;-4.81;100.00
59825;BME280;45703;50.898;6.054;2022-12-18T09:34:48;101141.31;;;-4.65;100.00
59825;BME280;45703;50.898;6.054;2022-12-18T09:37:14;101152.56;;;-4.52;100.00
59825;BME280;45703;50.898;6.054;2022-12-18T09:39:39;101149.25;;;-4.41;100.00
59825;BME280;45703;50.898;6.054;2022-12-18T09:42:05;101129.44;;;-4.31;100.00
59825;BME280;45703;50.898;6.054;2022-12-18T09:44:41;101137.84;;;-4.16;100.00
59825;BME280;45703;50.898;6.054;2022-12-18T09:47:25;101138.78;;;-4.04;100.00
59825;BME280;45703;50.898;6.054;2022-12-18T09:49:56;101135.59;;;-3.84;100.00
59825;BME280;45703;50.898;6.054;2022-12-18T09:52:30;101136.84;;;-3.77;100.00
59825;BME280;45703;50.898;6.054;2022-12-18T09:55:10;101121.97;;;-3.64;100.00
59825;BME280;45703;50.898;6.054;2022-12-18T09:57:42;101118.03;;;-3.46;100.00
59825;BME280;45703;50.898;6.054;2022-12-18T10:00:20;101124.47;;;-3.39;100.00
59825;BME280;45703;50.898;6.054;2022-12-18T10:02:46;101121.41;;;-3.33;100.00
59825;BME280;45703;50.898;6.054;2022-12-18T10:19:53;101114.38;;;-2.75;100.00
59825;BME280;45703;50.898;6.054;2022-12-18T10:22:29;101122.84;;;-2.61;100.00
59825;BME280;45703;50.898;6.054;2022-12-18T10:25:25;101112.88;;;-2.56;100.00
59825;BME280;45703;50.898;6.054;2022-12-18T10:27:57;101103.59;;;-2.49;100.00
59825;BME280;45703;50.898;6.054;2022-12-18T10:30:24;101096.69;;;-2.39;100.00
59825;BME280;45703;50.898;6.054;2022-12-18T10:32:50;101105.72;;;-2.32;100.00
59825;BME280;45703;50.898;6.054;2022-12-18T10:35:22;101102.66;;;-2.26;100.00
59825;BME280;45703;50.898;6.054;2022-12-18T10:40:25;101109.28;;;-2.00;100.00
59825;BME280;45703;50.898;6.054;2022-12-18T10:43:11;101106.94;;;-2.03;100.00
59825;BME280;45703;50.898;6.054;2022-12-18T10:45:37;101099.53;;;-1.87;100.00
59825;BME280;45703;50.898;6.054;2022-12-18T10:48:03;101100.00;;;-1.71;100.00
59825;BME280;45703;50.898;6.054;2022-12-18T10:50:34;101099.03;;;-1.70;100.00
59825;BME280;45703;50.898;6.054;2022-12-18T10:53:00;101091.34;;;-1.51;100.00
59825;BME280;45703;50.898;6.054;2022-12-18T10:55:34;101089.44;;;-1.49;100.00
59825;BME280;45703;50.898;6.054;2022-12-18T11:03:44;101071.03;;;-1.27;100.00
59825;BME280;45703;50.898;6.054;2022-12-18T11:06:13;101065.84;;;-1.18;100.00
59825;BME280;45703;50.898;6.054;2022-12-18T11:08:41;101056.66;;;-1.12;100.00
59825;BME280;45703;50.898;6.054;2022-12-18T11:11:15;101059.75;;;-1.07;100.00
59825;BME280;45703;50.898;6.054;2022-12-18T11:14:03;101057.13;;;-1.07;100.00
59825;BME280;45703;50.898;6.054;2022-12-18T11:16:34;101044.91;;;-0.97;100.00
59825;BME280;45703;50.898;6.054;2022-12-18T11:19:37;101042.16;;;-0.96;100.00
59825;BME280;45703;50.898;6.054;2022-12-18T11:22:19;101045.22;;;-0.91;100.00
59825;BME280;45703;50.898;6.054;2022-12-18T11:24:53;101029.81;;;-0.84;100.00
59825;BME280;45703;50.898;6.054;2022-12-18T11:27:20;101030.66;;;-0.84;100.00
59825;BME280;45703;50.898;6.054;2022-12-18T11:29:49;101028.13;;;-0.85;100.00
59825;BME280;45703;50.898;6.054;2022-12-18T11:34:49;101042.72;;;-0.92;100.00
59825;BME280;45703;50.898;6.054;2022-12-18T11:37:17;101043.06;;;-0.86;100.00
59825;BME280;45703;50.898;6.054;2022-12-18T11:42:39;101024.31;;;-0.81;100.00
59825;BME280;45703;50.898;6.054;2022-12-18T11:48:09;101013.56;;;-0.78;100.00
59825;BME280;45703;50.898;6.054;2022-12-18T11:50:46;101018.03;;;-0.69;100.00
59825;BME280;45703;50.898;6.054;2022-12-18T11:53:14;100999.41;;;-0.66;100.00
59825;BME280;45703;50.898;6.054;2022-12-18T11:56:02;101007.19;;;-0.55;100.00
59825;BME280;45703;50.898;6.054;2022-12-18T11:58:46;101009.66;;;-0.54;100.00
59825;BME280;45703;50.898;6.054;2022-12-18T12:01:26;101011.22;;;-0.51;100.00
59825;BME280;45703;50.898;6.054;2022-12-18T12:07:31;100992.75;;;-0.40;100.00
59825;BME280;45703;50.898;6.054;2022-12-18T12:15:38;100986.31;;;-0.27;100.00
59825;BME280;45703;50.898;6.054;2022-12-18T12:18:28;100985.50;;;-0.18;100.00
59825;BME280;45703;50.898;6.054;2022-12-18T12:26:42;100984.69;;;0.00;100.00
59825;BME280;45703;50.898;6.054;2022-12-18T12:29:32;100973.81;;;0.05;100.00
59825;BME280;45703;50.898;6.054;2022-12-18T12:35:06;100959.16;;;0.02;100.00
59825;BME280;45703;50.898;6.054;2022-12-18T12:40:30;100947.81;;;0.11;100.00
59825;BME280;45703;50.898;6.054;2022-12-18T12:43:07;100944.22;;;0.12;100.00
59825;BME280;45703;50.898;6.054;2022-12-18T12:46:23;100925.72;;;0.14;100.00
59825;BME280;45703;50.898;6.054;2022-12-18T12:48:43;100926.81;;;0.11;100.00
59825;BME280;45703;50.898;6.054;2022-12-18T12:51:20;100926.81;;;-0.07;100.00
59825;BME280;45703;50.898;6.054;2022-12-18T12:53:46;100927.09;;;0.08;100.00
59825;BME280;45703;50.898;6.054;2022-12-18T12:56:14;100915.38;;;0.03;100.00
59825;BME280;45703;50.898;6.054;2022-12-18T13:01:25;100919.63;;;0.13;100.00
59825;BME280;45703;50.898;6.054;2022-12-18T13:09:24;100902.50;;;0.19;100.00
59825;BME280;45703;50.898;6.054;2022-12-18T13:11:49;100896.97;;;0.22;100.00
59825;BME280;45703;50.898;6.054;2022-12-18T13:14:38;100884.66;;;0.22;100.00
59825;BME280;45703;50.898;6.054;2022-12-18T13:17:37;100892.25;;;0.25;100.00
59825;BME280;45703;50.898;6.054;2022-12-18T13:20:11;100886.31;;;0.23;100.00
59825;BME280;45703;50.898;6.054;2022-12-18T13:22:40;100888.81;;;0.25;100.00
59825;BME280;45703;50.898;6.054;2022-12-18T13:25:43;100882.59;;;0.26;100.00
59825;BME280;45703;50.898;6.054;2022-12-18T13:28:16;100892.13;;;0.27;100.00
59825;BME280;45703;50.898;6.054;2022-12-18T13:38:34;100869.59;;;0.24;100.00
59825;BME280;45703;50.898;6.054;2022-12-18T13:41:02;100872.94;;;0.26;100.00
59825;BME280;45703;50.898;6.054;2022-12-18T13:48:31;100870.44;;;0.25;100.00
59825;BME280;45703;50.898;6.054;2022-12-18T13:51:17;100868.09;;;0.22;100.00
59825;BME280;45703;50.898;6.054;2022-12-18T13:54:13;100868.50;;;0.17;100.00
59825;BME280;45703;50.898;6.054;2022-12-18T13:56:44;100863.53;;;0.14;100.00
59825;BME280;45703;50.898;6.054;2022-12-18T13:59:22;100867.56;;;0.09;100.00
59825;BME280;45703;50.898;6.054;2022-12-18T14:01:55;100860.66;;;0.08;100.00
59825;BME280;45703;50.898;6.054;2022-12-18T14:04:32;100858.56;;;0.11;100.00
59825;BME280;45703;50.898;6.054;2022-12-18T14:07:06;100855.53;;;0.06;100.00
59825;BME280;45703;50.898;6.054;2022-12-18T14:09:42;100848.91;;;0.02;100.00
59825;BME280;45703;50.898;6.054;2022-12-18T14:12:27;100854.84;;;0.04;100.00
59825;BME280;45703;50.898;6.054;2022-12-18T14:18:03;100845.88;;;-0.03;100.00
59825;BME280;45703;50.898;6.054;2022-12-18T14:20:41;100853.19;;;-0.06;100.00
59825;BME280;45703;50.898;6.054;2022-12-18T14:23:26;100853.91;;;-0.13;100.00